createdAt,value
2023-01-17T00:24:23.209Z,22.40
2023-01-17T00:26:25.149Z,24.13
2023-01-17T00:28:27.450Z,25.65
2023-01-17T00:30:29.359Z,25.42
2023-01-17T00:32:31.156Z,28.70
2023-01-17T00:34:32.996Z,25.02
2023-01-17T00:36:34.841Z,30.60
2023-01-17T00:38:38.631Z,26.65
2023-01-17T00:40:42.399Z,23.52
2023-01-17T00:42:44.279Z,26.60
2023-01-17T00:45:04.557Z,32.58
2023-01-17T00:47:24.943Z,27.20
2023-01-17T00:49:45.553Z,26.60
2023-01-17T00:52:06.077Z,30.92
2023-01-17T00:54:27.272Z,27.42
2023-01-17T00:56:47.868Z,32.40
2023-01-17T00:59:08.222Z,25.38
2023-01-17T01:01:28.706Z,34.53
2023-01-17T01:03:49.255Z,33.70
2023-01-17T01:06:09.824Z,33.92
2023-01-17T01:08:39.030Z,31.48
2023-01-17T01:10:59.721Z,36.50
2023-01-17T01:13:20.211Z,32.25
2023-01-17T01:15:40.447Z,36.00
2023-01-17T01:18:00.800Z,38.47
2023-01-17T01:20:21.500Z,39.03
2023-01-17T01:22:42.162Z,35.53
2023-01-17T01:25:02.711Z,37.40
2023-01-17T01:27:23.380Z,40.15
2023-01-17T01:29:43.914Z,42.80
2023-01-17T01:32:04.448Z,44.33
2023-01-17T01:34:06.316Z,43.70
2023-01-17T01:36:09.339Z,44.95
2023-01-17T01:38:11.296Z,43.47
2023-01-17T01:40:14.035Z,47.25
2023-01-17T01:42:18.840Z,41.30
2023-01-17T01:44:49.640Z,44.85
2023-01-17T01:46:51.555Z,43.90
2023-01-17T01:49:02.394Z,44.72
2023-01-17T01:51:07.699Z,48.75
2023-01-17T01:53:10.363Z,47.67
2023-01-17T01:55:25.085Z,43.80
2023-01-17T01:57:34.722Z,47.90
2023-01-17T01:59:40.902Z,52.13
2023-01-17T02:01:43.253Z,48.65
2023-01-17T02:03:46.780Z,49.08
2023-01-17T02:05:48.902Z,42.78
2023-01-17T02:10:02.870Z,52.38
2023-01-17T04:18:11.279Z,43.47
2023-01-17T04:20:31.925Z,38.35
2023-01-17T04:22:33.839Z,40.45
2023-01-17T04:24:35.974Z,41.38
2023-01-17T04:28:39.823Z,38.88
2023-01-17T04:32:43.578Z,43.28
2023-01-17T04:34:45.460Z,45.03
2023-01-17T04:36:47.390Z,38.42
2023-01-17T04:38:49.275Z,42.83
2023-01-17T04:40:51.536Z,37.25
2023-01-17T04:42:54.422Z,38.83
2023-01-17T04:44:56.362Z,39.45
2023-01-17T04:46:58.243Z,41.53
2023-01-17T04:49:00.653Z,40.28
2023-01-17T04:51:04.247Z,41.42
2023-01-17T04:53:06.225Z,41.28
2023-01-17T04:55:08.672Z,36.55
2023-01-17T04:57:10.744Z,40.67
2023-01-17T05:01:14.738Z,34.30
2023-01-17T05:03:21.424Z,33.63
2023-01-17T05:05:23.332Z,38.10
2023-01-17T05:07:25.729Z,43.45
2023-01-17T05:09:27.668Z,34.67
2023-01-17T05:11:29.523Z,38.83
2023-01-17T05:13:31.475Z,39.05
2023-01-17T05:15:33.470Z,35.85
2023-01-17T05:17:35.437Z,35.30
2023-01-17T05:19:37.459Z,34.88
2023-01-17T05:21:39.343Z,33.95
2023-01-17T05:23:42.719Z,40.53
2023-01-17T05:25:44.952Z,37.03
2023-01-17T05:27:46.820Z,38.22
2023-01-17T05:29:48.708Z,36.20
2023-01-17T05:31:50.594Z,34.58
2023-01-17T05:33:52.522Z,38.05
2023-01-17T05:35:54.474Z,34.53
2023-01-17T05:37:56.851Z,36.53
2023-01-17T05:39:58.739Z,39.20
2023-01-17T05:42:03.400Z,36.33
2023-01-17T05:44:05.477Z,35.95
2023-01-17T05:48:09.683Z,38.65
2023-01-17T05:50:13.833Z,38.22
2023-01-17T05:52:15.800Z,36.13
2023-01-17T05:54:17.872Z,33.22
2023-01-17T05:58:22.558Z,35.38
2023-01-17T06:00:24.800Z,38.42
2023-01-17T06:02:26.927Z,33.25
2023-01-17T06:06:30.685Z,32.70
2023-01-17T06:08:32.650Z,31.88
2023-01-17T08:11:02.769Z,42.80
2023-01-17T08:13:04.672Z,43.00
2023-01-17T08:15:07.147Z,42.03
2023-01-17T08:17:14.708Z,48.30
2023-01-17T08:19:17.731Z,42.47
2023-01-17T08:21:19.608Z,44.55
2023-01-17T08:23:21.723Z,44.95
2023-01-17T08:27:26.351Z,48.20
2023-01-17T08:29:29.373Z,43.58
2023-01-17T08:31:33.854Z,43.42
2023-01-17T08:33:36.451Z,47.20
2023-01-17T08:35:38.411Z,44.20
2023-01-17T08:37:40.337Z,44.20
2023-01-17T08:39:42.211Z,45.67
2023-01-17T08:41:44.101Z,47.55
2023-01-17T08:43:51.256Z,41.83
2023-01-17T08:45:56.083Z,43.88
2023-01-17T08:47:59.207Z,42.03
2023-01-17T08:50:01.480Z,42.95
2023-01-17T08:52:03.521Z,44.20
2023-01-17T08:56:08.134Z,36.63
2023-01-17T08:58:10.030Z,43.28
2023-01-17T09:00:12.333Z,46.67
2023-01-17T09:02:18.934Z,38.45
2023-01-17T09:04:20.857Z,41.38
2023-01-17T09:06:22.832Z,38.85
2023-01-17T09:08:24.688Z,47.42
2023-01-17T09:10:27.204Z,43.25
2023-01-17T09:12:32.987Z,40.53
2023-01-17T09:14:35.600Z,39.33
2023-01-17T09:16:37.535Z,39.25
2023-01-17T09:18:39.488Z,37.40
2023-01-17T09:20:41.372Z,41.00
2023-01-17T09:22:45.068Z,36.17
2023-01-17T09:24:47.913Z,39.92
2023-01-17T09:26:49.781Z,38.88
2023-01-17T09:28:52.880Z,40.65
2023-01-17T09:30:55.075Z,38.50
2023-01-17T09:32:56.982Z,41.63
2023-01-17T09:35:00.801Z,39.33
2023-01-17T09:37:03.357Z,47.28
2023-01-17T09:39:05.615Z,42.85
2023-01-17T09:41:38.125Z,39.30
2023-01-17T09:43:49.074Z,37.38
2023-01-17T09:45:51.359Z,41.80
2023-01-17T09:47:55.113Z,48.25
2023-01-17T09:50:06.657Z,39.97
2023-01-17T09:52:17.648Z,41.58
2023-01-17T09:54:25.483Z,39.53
2023-01-17T09:56:42.781Z,43.72
2023-01-17T09:59:15.408Z,43.03
2023-01-17T10:01:45.081Z,42.05
2023-01-17T10:04:01.128Z,41.15
2023-01-17T12:13:20.067Z,43.60
2023-01-17T12:15:39.510Z,34.60
2023-01-17T12:18:06.737Z,38.72
2023-01-17T12:20:24.878Z,40.03
2023-01-17T12:22:35.895Z,40.70
2023-01-17T12:24:46.432Z,39.15
2023-01-17T12:26:54.267Z,38.70
2023-01-17T12:29:14.952Z,36.90
2023-01-17T12:31:33.631Z,45.08
2023-01-17T12:33:58.294Z,40.90
2023-01-17T12:36:05.206Z,36.42
2023-01-17T12:38:18.045Z,37.55
2023-01-17T12:40:33.001Z,38.10
2023-01-17T12:42:41.030Z,40.47
2023-01-17T12:45:17.926Z,38.05
2023-01-17T12:47:21.377Z,38.60
2023-01-17T12:49:35.601Z,38.67
2023-01-17T12:51:41.308Z,39.17
2023-01-17T12:54:16.107Z,35.58
2023-01-17T12:56:26.830Z,38.03
2023-01-17T12:58:36.889Z,39.92
2023-01-17T13:00:39.650Z,38.42
2023-01-17T13:02:59.497Z,34.55
2023-01-17T13:05:29.620Z,42.60
2023-01-17T13:08:20.115Z,39.97
2023-01-17T13:10:32.081Z,40.42
2023-01-17T13:12:37.958Z,43.15
2023-01-17T13:14:40.039Z,43.13
2023-01-17T13:19:42.054Z,44.08
2023-01-17T13:21:45.807Z,44.78
2023-01-17T13:23:54.059Z,41.47
2023-01-17T13:25:59.281Z,37.78
2023-01-17T13:28:04.368Z,40.38
2023-01-17T13:30:22.212Z,49.45
2023-01-17T13:32:39.038Z,41.95
2023-01-17T13:35:05.083Z,41.63
2023-01-17T13:37:54.961Z,41.75
2023-01-17T13:40:15.303Z,41.83
2023-01-17T13:42:34.634Z,47.45
2023-01-17T13:44:37.532Z,46.25
2023-01-17T13:46:57.634Z,40.83
2023-01-17T13:49:23.550Z,41.42
2023-01-17T13:52:07.653Z,43.00
2023-01-17T13:54:31.027Z,43.03
2023-01-17T13:56:34.129Z,36.40
2023-01-17T16:13:18.137Z,48.00
2023-01-17T16:15:20.532Z,43.55
2023-01-17T16:17:22.437Z,40.28
2023-01-17T16:19:24.383Z,40.33
2023-01-17T16:21:29.517Z,38.30
2023-01-17T16:23:31.560Z,44.65
2023-01-17T16:27:36.418Z,44.17
2023-01-17T16:29:38.319Z,45.65
2023-01-17T16:31:40.287Z,44.03
2023-01-17T16:33:42.528Z,40.88
2023-01-17T16:35:44.380Z,44.10
2023-01-17T16:37:53.056Z,43.00
2023-01-17T16:39:55.205Z,41.28
2023-01-17T16:42:02.617Z,44.95
2023-01-17T16:44:06.252Z,39.58
2023-01-17T16:46:11.597Z,40.17
2023-01-17T16:48:14.211Z,41.58
2023-01-17T16:50:18.509Z,42.60
2023-01-17T16:52:20.573Z,45.30
2023-01-17T16:56:24.458Z,36.22
2023-01-17T16:58:26.449Z,42.85
2023-01-17T17:00:28.378Z,44.60
2023-01-17T17:02:30.809Z,47.85
2023-01-17T17:04:32.752Z,45.55
2023-01-17T17:06:34.634Z,41.45
2023-01-17T17:08:37.627Z,48.45
2023-01-17T17:10:39.542Z,44.63
2023-01-17T17:12:41.732Z,45.25
2023-01-17T17:14:43.764Z,44.58
2023-01-17T17:16:45.660Z,44.95
2023-01-17T17:18:54.970Z,54.83
2023-01-17T17:21:02.101Z,53.05
2023-01-17T17:23:04.081Z,47.13
2023-01-17T17:25:06.840Z,45.80
2023-01-17T17:27:08.802Z,41.38
2023-01-17T17:29:12.738Z,43.13
2023-01-17T17:31:14.724Z,47.67
2023-01-17T17:33:17.321Z,42.95
2023-01-17T17:35:19.285Z,41.42
2023-01-17T17:37:23.031Z,42.85
2023-01-17T17:39:24.985Z,44.92
2023-01-17T17:41:29.182Z,38.65
2023-01-17T17:43:31.161Z,41.80
2023-01-17T17:47:34.998Z,46.42
2023-01-17T17:49:36.912Z,41.78
2023-01-17T17:51:40.637Z,44.85
2023-01-17T17:53:42.927Z,42.03
2023-01-17T17:55:44.854Z,43.95
2023-01-17T17:57:47.237Z,43.38
2023-01-17T17:59:49.139Z,45.10
2023-01-17T20:16:49.714Z,42.03
2023-01-17T20:18:52.475Z,42.97
2023-01-17T20:20:57.219Z,47.25
2023-01-17T20:23:01.327Z,45.13
2023-01-17T20:25:03.392Z,44.42
2023-01-17T20:29:15.297Z,44.55
2023-01-17T20:31:25.675Z,45.85
2023-01-17T20:33:27.756Z,42.60
2023-01-17T20:37:34.009Z,41.03
2023-01-17T20:39:38.944Z,48.20
2023-01-17T20:41:42.811Z,39.92
2023-01-17T20:43:50.392Z,50.15
2023-01-17T20:45:56.267Z,45.70
2023-01-17T20:47:58.651Z,48.22
2023-01-17T20:50:03.171Z,40.58
2023-01-17T20:52:06.187Z,46.65
2023-01-17T20:54:13.918Z,44.42
2023-01-17T20:56:15.919Z,50.25
2023-01-17T20:58:17.812Z,47.42
2023-01-17T21:00:20.105Z,42.65
2023-01-17T21:02:22.065Z,48.75
2023-01-17T21:04:25.743Z,53.00
2023-01-17T21:06:28.038Z,47.40
2023-01-17T21:08:31.593Z,51.38
2023-01-17T21:10:33.497Z,51.97
2023-01-17T21:12:35.513Z,54.25
2023-01-17T21:14:41.915Z,42.70
2023-01-17T21:16:44.756Z,46.38
2023-01-17T21:18:48.160Z,49.17
2023-01-17T21:20:50.576Z,46.92
2023-01-17T21:22:52.460Z,50.17
2023-01-17T21:24:54.611Z,52.40
2023-01-17T21:31:18.141Z,49.90
2023-01-17T21:33:21.428Z,44.75
2023-01-17T21:35:23.508Z,45.55
2023-01-17T21:37:25.724Z,43.10
2023-01-17T21:39:31.469Z,47.45
2023-01-17T21:41:36.291Z,42.42
2023-01-17T21:43:38.309Z,41.63
2023-01-17T21:45:41.424Z,39.03
2023-01-17T21:47:44.739Z,45.13
2023-01-17T21:49:47.120Z,40.67
2023-01-17T21:51:55.303Z,43.35
2023-01-17T21:54:01.378Z,47.80
2023-01-17T21:56:23.487Z,46.05
2023-01-17T21:58:44.024Z,48.08
2023-01-17T22:00:49.039Z,33.80
